createdAt,value
2022-08-17T00:00:34.234Z,12.32
2022-08-17T00:03:10.532Z,11.98
2022-08-17T00:06:12.186Z,12.60
2022-08-17T00:08:46.082Z,12.40
2022-08-17T00:11:23.311Z,12.73
2022-08-17T00:13:56.269Z,12.55
2022-08-17T00:16:55.620Z,10.98
2022-08-17T00:19:23.254Z,10.30
2022-08-17T00:22:29.498Z,11.50
2022-08-17T00:24:40.960Z,12.27
2022-08-17T00:27:08.710Z,11.20
2022-08-17T00:29:36.196Z,12.23
2022-08-17T00:33:10.817Z,11.20
2022-08-17T00:34:51.601Z,11.43
2022-08-17T00:37:19.142Z,11.85
2022-08-17T00:39:46.788Z,12.50
2022-08-17T00:42:18.542Z,12.75
2022-08-17T00:44:46.423Z,12.60
2022-08-17T00:47:13.998Z,13.35
2022-08-17T00:49:41.748Z,11.98
2022-08-17T00:52:15.763Z,12.55
2022-08-17T00:54:46.730Z,12.50
2022-08-17T00:57:36.942Z,11.65
2022-08-17T01:00:18.463Z,12.23
2022-08-17T01:02:48.061Z,12.67
2022-08-17T01:05:20.044Z,12.30
2022-08-17T01:07:53.251Z,12.27
2022-08-17T01:10:59.223Z,12.38
2022-08-17T01:13:15.197Z,11.02
2022-08-17T01:15:49.036Z,12.68
2022-08-17T01:18:17.134Z,11.30
2022-08-17T01:20:53.888Z,11.05
2022-08-17T01:23:24.415Z,11.70
2022-08-17T01:25:54.734Z,12.05
2022-08-17T01:28:52.468Z,12.10
2022-08-17T01:31:11.035Z,11.18
2022-08-17T01:33:38.980Z,10.90
2022-08-17T01:36:07.752Z,11.85
2022-08-17T01:38:36.343Z,11.85
2022-08-17T01:41:12.767Z,12.32
2022-08-17T01:43:55.206Z,11.20
2022-08-17T01:48:56.623Z,11.93
2022-08-17T01:51:29.554Z,10.70
2022-08-17T01:54:00.581Z,11.10
2022-08-17T01:56:30.131Z,11.32
2022-08-17T01:58:57.771Z,10.43
2022-08-17T02:01:32.655Z,10.38
2022-08-17T02:04:01.922Z,10.85
2022-08-17T02:06:52.441Z,9.93
2022-08-17T02:09:29.974Z,10.85
2022-08-17T02:12:37.304Z,9.10
2022-08-17T02:14:48.524Z,5.80
2022-08-17T02:17:16.010Z,5.38
2022-08-17T02:19:43.851Z,4.50
2022-08-17T02:22:12.095Z,4.63
2022-08-17T02:25:00.359Z,4.65
2022-08-17T02:27:27.576Z,4.60
2022-08-17T02:29:55.174Z,6.25
2022-08-17T02:32:27.964Z,6.05
2022-08-17T02:34:57.646Z,6.43
2022-08-17T02:37:27.187Z,5.72
2022-08-17T02:39:58.448Z,6.10
2022-08-17T02:42:35.108Z,5.63
2022-08-17T02:45:11.469Z,6.07
2022-08-17T02:47:40.479Z,4.78
2022-08-17T02:50:11.004Z,4.88
2022-08-17T02:52:42.722Z,5.22
2022-08-17T02:55:15.606Z,5.55
2022-08-17T02:57:43.722Z,5.32
2022-08-17T03:00:15.598Z,5.97
2022-08-17T03:02:44.584Z,5.95
2022-08-17T03:05:14.110Z,6.22
2022-08-17T03:07:42.180Z,6.53
2022-08-17T03:10:11.822Z,5.38
2022-08-17T03:12:41.907Z,6.18
2022-08-17T03:15:14.712Z,6.30
2022-08-17T03:17:42.566Z,5.65
2022-08-17T03:20:11.339Z,6.05
2022-08-17T03:22:41.758Z,5.88
2022-08-17T03:25:22.649Z,6.25
2022-08-17T03:27:51.519Z,5.70
2022-08-17T03:30:19.259Z,5.97
2022-08-17T03:32:51.786Z,5.80
2022-08-17T03:35:22.465Z,6.35
2022-08-17T03:37:56.993Z,7.07
2022-08-17T03:40:55.890Z,8.30
2022-08-17T03:43:18.094Z,8.23
2022-08-17T03:46:03.866Z,7.80
2022-08-17T03:48:52.021Z,8.80
2022-08-17T03:51:42.952Z,7.80
2022-08-17T03:54:29.584Z,7.85
2022-08-17T03:57:15.404Z,8.50
2022-08-17T03:59:43.069Z,9.57
2022-08-17T04:02:20.037Z,8.60
2022-08-17T04:04:51.193Z,8.95
2022-08-17T04:07:21.043Z,8.18
2022-08-17T04:09:48.854Z,7.30
2022-08-17T04:12:19.210Z,7.15
2022-08-17T04:14:52.874Z,6.93
2022-08-17T04:17:27.750Z,7.07
2022-08-17T04:19:56.204Z,6.25
2022-08-17T04:22:33.379Z,5.43
2022-08-17T04:25:09.160Z,6.72
2022-08-17T04:27:36.986Z,6.32
2022-08-17T04:30:07.557Z,6.20
2022-08-17T04:33:09.834Z,6.22
2022-08-17T04:35:44.750Z,6.72
2022-08-17T04:38:15.135Z,7.13
2022-08-17T04:41:02.294Z,6.88
2022-08-17T04:43:32.311Z,6.78
2022-08-17T04:46:05.010Z,7.60
2022-08-17T04:48:37.404Z,7.18
2022-08-17T04:51:15.148Z,7.22
2022-08-17T04:53:46.533Z,5.57
2022-08-17T04:56:22.792Z,6.15
2022-08-17T04:58:52.474Z,6.30
2022-08-17T05:01:23.106Z,7.10
2022-08-17T05:03:53.848Z,6.80
2022-08-17T05:06:21.539Z,7.20
2022-08-17T05:08:49.205Z,7.35
2022-08-17T05:11:16.824Z,7.63
2022-08-17T05:13:44.987Z,9.45
2022-08-17T05:16:12.571Z,10.18
2022-08-17T05:18:40.136Z,10.75
2022-08-17T05:21:08.380Z,11.35
2022-08-17T05:23:41.580Z,11.82
2022-08-17T05:26:25.819Z,11.90
2022-08-17T05:28:57.214Z,12.07
2022-08-17T05:31:28.667Z,12.20
2022-08-17T05:33:56.998Z,12.45
2022-08-17T05:36:43.386Z,13.25
2022-08-17T05:39:16.369Z,13.85
2022-08-17T05:41:46.882Z,13.32
2022-08-17T05:44:14.675Z,12.80
2022-08-17T05:46:48.342Z,11.93
2022-08-17T05:49:19.289Z,13.05
2022-08-17T05:54:33.699Z,13.45
2022-08-17T05:57:22.028Z,13.20
2022-08-17T06:00:06.660Z,13.15
2022-08-17T06:02:59.976Z,12.70
2022-08-17T06:05:51.825Z,12.50
2022-08-17T06:08:34.297Z,12.80
2022-08-17T06:14:07.219Z,12.25
2022-08-17T06:16:40.354Z,12.35
2022-08-17T06:19:17.020Z,12.57
2022-08-17T06:21:49.341Z,12.90
2022-08-17T06:26:48.037Z,12.43
2022-08-17T06:29:22.658Z,13.60
2022-08-17T06:31:51.199Z,12.73
2022-08-17T06:34:21.963Z,12.43
2022-08-17T06:36:52.531Z,13.25
2022-08-17T06:39:30.904Z,14.73
2022-08-17T06:42:07.482Z,13.13
2022-08-17T06:44:51.723Z,13.52
2022-08-17T06:47:36.353Z,14.10
2022-08-17T06:50:36.202Z,15.15
2022-08-17T06:53:05.508Z,14.65
2022-08-17T06:55:47.031Z,13.55
2022-08-17T06:58:21.362Z,13.90
2022-08-17T07:00:58.078Z,13.23
2022-08-17T07:03:38.035Z,14.10
2022-08-17T07:06:08.433Z,13.50
2022-08-17T07:09:19.012Z,15.27
2022-08-17T07:11:56.964Z,13.60
2022-08-17T07:14:52.025Z,13.57
2022-08-17T07:17:22.231Z,13.77
2022-08-17T07:20:18.026Z,13.52
2022-08-17T07:23:00.064Z,14.27
2022-08-17T07:25:28.824Z,14.30
2022-08-17T07:28:02.631Z,14.88
2022-08-17T07:30:45.880Z,15.10
2022-08-17T07:33:22.962Z,15.15
2022-08-17T07:35:51.334Z,14.38
2022-08-17T07:38:28.625Z,14.82
2022-08-17T07:41:02.539Z,14.23
2022-08-17T07:43:42.267Z,13.65
2022-08-17T07:46:36.314Z,14.35
2022-08-17T07:49:03.895Z,13.88
2022-08-17T07:51:36.406Z,15.52
2022-08-17T07:54:24.678Z,14.10
2022-08-17T07:56:52.766Z,15.23
2022-08-17T07:59:24.206Z,14.23
2022-08-17T08:02:07.230Z,14.67
2022-08-17T08:04:59.776Z,16.73
2022-08-17T08:07:37.669Z,16.52
2022-08-17T08:10:12.679Z,15.27
2022-08-17T08:13:00.860Z,15.70
2022-08-17T08:15:53.735Z,16.67
2022-08-17T08:21:33.794Z,15.38
2022-08-17T08:24:30.822Z,18.08
2022-08-17T08:27:18.427Z,18.35
2022-08-17T08:29:52.968Z,19.58
2022-08-17T08:32:39.016Z,20.17
2022-08-17T08:35:13.534Z,22.58
2022-08-17T08:37:46.331Z,21.95
2022-08-17T08:40:33.817Z,20.83
2022-08-17T08:43:07.432Z,19.55
2022-08-17T08:45:38.588Z,17.23
2022-08-17T08:48:56.652Z,18.60
2022-08-17T08:51:27.948Z,16.50
2022-08-17T08:54:14.785Z,16.15
2022-08-17T08:57:23.121Z,16.00
2022-08-17T09:00:07.152Z,16.80
2022-08-17T09:02:47.092Z,13.93
2022-08-17T09:05:33.424Z,16.17
2022-08-17T09:08:09.017Z,14.15
2022-08-17T09:10:49.761Z,16.33
2022-08-17T09:13:38.923Z,16.25
2022-08-17T09:16:15.605Z,15.55
2022-08-17T09:19:01.850Z,14.85
2022-08-17T09:21:48.041Z,15.02
2022-08-17T09:24:28.496Z,14.85
2022-08-17T09:27:23.747Z,13.75
2022-08-17T09:30:00.557Z,13.02
2022-08-17T09:32:36.728Z,13.18
2022-08-17T09:35:33.781Z,12.45
2022-08-17T09:38:32.329Z,16.52
2022-08-17T09:41:16.286Z,16.73
2022-08-17T09:43:49.589Z,17.58
2022-08-17T09:46:31.576Z,16.17
2022-08-17T09:49:25.036Z,16.55
2022-08-17T09:51:58.906Z,16.40
2022-08-17T09:54:40.353Z,14.77
2022-08-17T09:57:47.711Z,14.20
2022-08-17T10:00:27.889Z,16.55
2022-08-17T10:03:34.649Z,16.30
2022-08-17T10:06:22.106Z,14.13
2022-08-17T10:09:30.307Z,12.65
2022-08-17T10:12:29.830Z,11.82
2022-08-17T10:15:10.852Z,11.40
2022-08-17T10:18:16.198Z,11.30
2022-08-17T10:21:22.703Z,12.43
2022-08-17T10:24:27.172Z,11.82
2022-08-17T10:26:58.990Z,12.35
2022-08-17T10:29:48.940Z,12.90
2022-08-17T10:32:33.537Z,12.00
2022-08-17T10:35:20.555Z,11.05
2022-08-17T10:37:51.163Z,10.52
2022-08-17T10:40:50.589Z,11.77
2022-08-17T10:43:27.179Z,10.73
2022-08-17T10:46:31.585Z,10.75
2022-08-17T10:49:27.729Z,10.55
2022-08-17T10:52:16.739Z,11.38
2022-08-17T10:54:51.197Z,11.75
2022-08-17T10:57:40.770Z,11.77
2022-08-17T11:00:19.028Z,10.38
2022-08-17T11:02:52.199Z,10.60
2022-08-17T11:05:32.569Z,10.18
2022-08-17T11:08:24.476Z,11.05
2022-08-17T11:11:07.032Z,10.07
2022-08-17T11:14:08.865Z,10.50
2022-08-17T11:16:48.149Z,11.33
2022-08-17T11:19:37.703Z,10.98
2022-08-17T11:22:13.847Z,9.73
2022-08-17T11:24:48.204Z,12.00
2022-08-17T11:27:29.810Z,10.73
2022-08-17T11:30:03.944Z,9.87
2022-08-17T11:32:47.383Z,9.52
2022-08-17T11:35:21.712Z,9.98
2022-08-17T11:38:15.040Z,10.68
2022-08-17T11:41:05.610Z,11.40
2022-08-17T11:44:10.821Z,10.45
2022-08-17T11:47:08.773Z,10.43
2022-08-17T11:50:11.941Z,11.82
2022-08-17T11:52:46.988Z,10.85
2022-08-17T11:55:39.622Z,9.52
2022-08-17T11:58:28.027Z,12.57
2022-08-17T12:01:03.267Z,11.50
2022-08-17T12:03:33.678Z,10.95
2022-08-17T12:06:11.293Z,12.52
2022-08-17T12:08:45.729Z,11.75
2022-08-17T12:12:05.845Z,10.32
2022-08-17T12:14:15.059Z,10.52
2022-08-17T12:16:45.451Z,10.73
2022-08-17T12:19:21.942Z,11.10
2022-08-17T12:22:00.393Z,9.32
2022-08-17T12:24:52.125Z,10.75
2022-08-17T12:27:46.160Z,8.90
2022-08-17T12:30:22.351Z,9.83
2022-08-17T12:32:50.389Z,9.75
2022-08-17T12:35:39.237Z,10.25
2022-08-17T12:38:32.616Z,9.35
2022-08-17T12:41:00.021Z,8.85
2022-08-17T12:43:33.095Z,9.43
2022-08-17T12:46:14.949Z,9.48
2022-08-17T12:51:29.382Z,9.07
2022-08-17T12:53:57.211Z,9.35
2022-08-17T12:56:24.895Z,8.90
2022-08-17T12:58:56.848Z,9.13
2022-08-17T13:01:25.413Z,8.18
2022-08-17T13:03:57.462Z,9.38
2022-08-17T13:06:33.692Z,8.60
2022-08-17T13:09:22.225Z,8.55
2022-08-17T13:12:05.118Z,7.63
2022-08-17T13:14:33.273Z,8.10
2022-08-17T13:17:11.016Z,9.27
2022-08-17T13:19:49.595Z,9.15
2022-08-17T13:22:22.598Z,9.02
2022-08-17T13:24:56.580Z,8.80
2022-08-17T13:27:27.841Z,9.15
2022-08-17T13:29:59.885Z,8.23
2022-08-17T13:35:50.172Z,8.85
2022-08-17T13:38:45.900Z,9.35
2022-08-17T13:41:34.924Z,8.75
2022-08-17T13:44:22.836Z,8.75
2022-08-17T13:46:57.276Z,8.90
2022-08-17T13:49:25.952Z,8.10
2022-08-17T13:52:35.749Z,8.18
2022-08-17T13:55:26.641Z,8.07
2022-08-17T13:58:06.742Z,8.80
2022-08-17T14:00:36.601Z,7.75
2022-08-17T14:03:06.023Z,9.02
2022-08-17T14:05:38.055Z,8.10
2022-08-17T14:08:06.852Z,8.77
2022-08-17T14:10:36.784Z,8.10
2022-08-17T14:13:05.701Z,8.35
2022-08-17T14:15:55.153Z,8.15
2022-08-17T14:18:35.699Z,8.10
2022-08-17T14:21:10.003Z,8.63
2022-08-17T14:23:38.092Z,8.27
2022-08-17T14:26:05.809Z,7.63
2022-08-17T14:28:33.763Z,7.45
2022-08-17T14:31:04.590Z,7.45
2022-08-17T14:33:32.159Z,7.53
2022-08-17T14:36:00.413Z,7.78
2022-08-17T14:38:28.642Z,7.57
2022-08-17T14:40:56.529Z,7.50
2022-08-17T14:43:24.240Z,7.32
2022-08-17T14:45:52.134Z,7.20
2022-08-17T14:48:19.785Z,8.07
2022-08-17T14:50:47.406Z,7.55
2022-08-17T14:53:16.458Z,7.15
2022-08-17T14:55:46.945Z,6.55
2022-08-17T14:58:14.902Z,6.65
2022-08-17T15:00:43.836Z,6.60
2022-08-17T15:03:12.034Z,6.68
2022-08-17T15:05:40.320Z,7.03
2022-08-17T15:08:08.204Z,6.80
2022-08-17T15:10:39.330Z,6.53
2022-08-17T15:13:19.926Z,6.63
2022-08-17T15:15:48.273Z,6.28
2022-08-17T15:18:16.622Z,6.15
2022-08-17T15:20:45.072Z,6.55
2022-08-17T15:23:14.549Z,6.50
2022-08-17T15:25:43.940Z,6.32
2022-08-17T15:28:12.288Z,7.15
2022-08-17T15:30:43.708Z,6.90
2022-08-17T15:33:30.652Z,6.75
2022-08-17T15:36:01.593Z,7.60
2022-08-17T15:38:30.307Z,7.10
2022-08-17T15:41:00.782Z,6.70
2022-08-17T15:43:34.320Z,7.00
2022-08-17T15:46:07.176Z,7.45
2022-08-17T15:48:45.138Z,6.07
2022-08-17T15:51:18.742Z,6.57
2022-08-17T15:53:50.956Z,6.82
2022-08-17T15:58:47.756Z,7.50
2022-08-17T16:03:01.697Z,7.07
2022-08-17T16:04:26.909Z,6.75
2022-08-17T16:06:55.140Z,6.65
2022-08-17T16:09:23.129Z,6.97
2022-08-17T16:11:52.008Z,6.55
2022-08-17T16:14:24.097Z,7.20
2022-08-17T16:16:51.941Z,6.80
2022-08-17T16:19:19.599Z,6.45
2022-08-17T16:21:47.064Z,6.32
2022-08-17T16:24:14.911Z,6.15
2022-08-17T16:26:42.861Z,6.07
2022-08-17T16:29:10.416Z,6.20
2022-08-17T16:31:38.093Z,6.53
2022-08-17T16:34:17.023Z,5.93
2022-08-17T16:36:53.731Z,6.70
2022-08-17T16:39:29.484Z,6.20
2022-08-17T16:41:57.778Z,5.60
2022-08-17T16:44:29.187Z,5.82
2022-08-17T16:46:57.766Z,5.83
2022-08-17T16:49:37.032Z,5.50
2022-08-17T16:52:10.717Z,5.35
2022-08-17T16:54:44.085Z,5.50
2022-08-17T16:57:17.813Z,5.38
2022-08-17T16:59:50.531Z,5.75
2022-08-17T17:02:46.464Z,5.63
2022-08-17T17:05:22.719Z,5.10
2022-08-17T17:08:03.799Z,5.05
2022-08-17T17:10:40.969Z,5.43
2022-08-17T17:13:19.521Z,5.93
2022-08-17T17:16:11.125Z,6.60
2022-08-17T17:19:34.198Z,7.07
2022-08-17T17:22:14.913Z,7.35
2022-08-17T17:25:34.798Z,7.53
2022-08-17T17:28:06.741Z,6.63
2022-08-17T17:30:49.046Z,7.00
2022-08-17T17:33:43.040Z,6.97
2022-08-17T17:36:48.286Z,8.65
2022-08-17T17:39:26.275Z,7.75
2022-08-17T17:41:58.004Z,7.28
2022-08-17T17:44:30.493Z,6.32
2022-08-17T17:47:00.471Z,6.07
2022-08-17T17:49:33.359Z,6.88
2022-08-17T17:52:14.254Z,6.75
2022-08-17T17:55:04.931Z,7.00
2022-08-17T17:57:50.579Z,6.45
2022-08-17T18:00:26.527Z,6.70
2022-08-17T18:03:29.622Z,6.95
2022-08-17T18:06:26.256Z,7.30
2022-08-17T18:09:12.376Z,7.45
2022-08-17T18:12:20.888Z,7.50
2022-08-17T18:15:25.294Z,7.85
2022-08-17T18:18:13.979Z,7.75
2022-08-17T18:20:53.930Z,8.05
2022-08-17T18:23:28.131Z,8.13
2022-08-17T18:25:58.935Z,8.48
2022-08-17T18:28:35.800Z,8.10
2022-08-17T18:31:18.553Z,8.50
2022-08-17T18:33:49.549Z,8.38
2022-08-17T18:36:30.801Z,8.77
2022-08-17T18:39:21.228Z,9.90
2022-08-17T18:41:53.005Z,10.45
2022-08-17T18:44:31.412Z,10.70
2022-08-17T18:47:16.236Z,10.32
2022-08-17T18:49:47.105Z,10.50
2022-08-17T18:52:31.047Z,9.73
2022-08-17T18:54:58.611Z,10.20
2022-08-17T18:57:50.996Z,10.02
2022-08-17T19:00:40.559Z,9.10
2022-08-17T19:03:18.129Z,7.50
2022-08-17T19:06:15.078Z,8.10
2022-08-17T19:08:42.664Z,8.43
2022-08-17T19:11:34.356Z,7.90
2022-08-17T19:14:12.705Z,7.80
2022-08-17T19:17:02.931Z,7.50
2022-08-17T19:19:50.775Z,8.05
2022-08-17T19:22:30.991Z,7.80
2022-08-17T19:25:25.486Z,8.27
2022-08-17T19:28:21.639Z,8.88
2022-08-17T19:30:54.701Z,10.32
2022-08-17T19:33:22.460Z,9.20
2022-08-17T19:36:32.943Z,9.63
2022-08-17T19:39:37.750Z,9.23
2022-08-17T19:42:28.656Z,9.63
2022-08-17T19:45:04.239Z,9.32
2022-08-17T19:47:55.896Z,8.93
2022-08-17T19:51:00.295Z,9.65
2022-08-17T19:54:05.287Z,9.68
2022-08-17T19:56:48.178Z,9.93
2022-08-17T19:59:49.121Z,9.73
2022-08-17T20:02:25.875Z,9.77
2022-08-17T20:04:59.104Z,9.23
2022-08-17T20:07:37.689Z,8.80
2022-08-17T20:10:20.376Z,8.98
2022-08-17T20:12:52.111Z,9.23
2022-08-17T20:15:33.566Z,8.50
2022-08-17T20:18:06.044Z,8.20
2022-08-17T20:20:51.703Z,8.75
2022-08-17T20:23:38.892Z,6.88
2022-08-17T20:26:35.401Z,5.45
2022-08-17T20:29:14.961Z,5.20
2022-08-17T20:31:55.879Z,5.80
2022-08-17T20:34:37.438Z,6.40
2022-08-17T20:37:09.078Z,6.35
2022-08-17T20:40:06.030Z,7.00
2022-08-17T20:42:34.805Z,7.68
2022-08-17T20:45:22.271Z,6.35
2022-08-17T20:48:22.204Z,6.47
2022-08-17T20:54:06.851Z,5.45
2022-08-17T20:56:46.744Z,5.10
2022-08-17T20:59:27.747Z,4.80
2022-08-17T21:02:18.108Z,4.47
2022-08-17T21:05:01.484Z,5.07
2022-08-17T21:07:43.380Z,4.38
2022-08-17T21:10:36.292Z,4.95
2022-08-17T21:13:14.054Z,5.22
2022-08-17T21:15:50.152Z,4.97
2022-08-17T21:18:46.454Z,4.68
2022-08-17T21:21:22.595Z,4.32
2022-08-17T21:24:16.718Z,4.55
2022-08-17T21:27:22.581Z,5.00
2022-08-17T21:29:54.445Z,5.15
2022-08-17T21:32:30.453Z,5.40
2022-08-17T21:35:07.745Z,4.47
2022-08-17T21:37:43.211Z,5.18
2022-08-17T21:40:10.882Z,5.28
2022-08-17T21:42:51.188Z,5.30
2022-08-17T21:45:21.162Z,4.85
2022-08-17T21:48:14.167Z,4.78
2022-08-17T21:50:45.042Z,4.03
2022-08-17T21:53:23.542Z,4.20
2022-08-17T21:55:53.697Z,4.15
2022-08-17T21:58:40.516Z,4.90
2022-08-17T22:01:11.208Z,4.20
2022-08-17T22:03:39.192Z,4.57
2022-08-17T22:06:29.327Z,4.28
2022-08-17T22:09:26.177Z,4.90
2022-08-17T22:12:09.399Z,4.90
2022-08-17T22:14:52.265Z,5.33
2022-08-17T22:17:36.141Z,5.07
2022-08-17T22:20:09.862Z,4.72
2022-08-17T22:23:04.771Z,4.57
2022-08-17T22:25:36.331Z,5.00
2022-08-17T22:28:09.752Z,5.00
2022-08-17T22:31:15.131Z,4.60
2022-08-17T22:33:52.177Z,4.18
2022-08-17T22:36:33.315Z,4.70
2022-08-17T22:39:09.897Z,4.80
2022-08-17T22:41:59.617Z,5.07
2022-08-17T22:44:30.355Z,4.95
2022-08-17T22:47:16.559Z,5.43
2022-08-17T22:49:56.917Z,5.40
2022-08-17T22:52:59.705Z,5.50
2022-08-17T22:55:48.428Z,5.30
2022-08-17T22:58:39.190Z,5.35
2022-08-17T23:01:32.679Z,6.50
2022-08-17T23:04:04.310Z,6.30
2022-08-17T23:06:36.104Z,5.90
2022-08-17T23:09:06.533Z,6.80
2022-08-17T23:11:49.851Z,7.50
2022-08-17T23:14:20.208Z,7.63
2022-08-17T23:16:50.421Z,7.60
2022-08-17T23:19:20.596Z,7.47
2022-08-17T23:21:51.259Z,7.90
2022-08-17T23:24:25.133Z,7.95
2022-08-17T23:26:52.843Z,8.05
2022-08-17T23:29:21.754Z,7.85
2022-08-17T23:31:51.317Z,8.07
2022-08-17T23:34:19.270Z,7.72
2022-08-17T23:36:52.418Z,7.82
2022-08-17T23:39:24.501Z,7.35
2022-08-17T23:41:59.721Z,7.30
2022-08-17T23:44:29.006Z,6.88
2022-08-17T23:46:57.220Z,7.85
2022-08-17T23:49:25.478Z,7.03
2022-08-17T23:51:56.860Z,6.68
2022-08-17T23:54:25.549Z,7.03
2022-08-17T23:56:53.136Z,7.15
2022-08-17T23:59:22.938Z,6.82
